Time;durP1;ratioP1;P1;durP2;ratioP2;P2;SDS_P1;SDS_P2;PMS_P1;PMS_P2;Temp;Humidity;BMP_temperature;BMP_pressure;BME280_temperature;BME280_humidity;BME280_pressure;Samples;Min_cycle;Max_cycle;Signal;HPM_P1;HPM_P2
2022/11/29 00:00:14;;;;;;;8.75;7.28;;;7.10;98.40;;;;;;4956122;29;20220;-66
2022/11/29 00:02:42;;;;;;;9.95;7.25;;;7.10;98.50;;;;;;4955785;29;20229;-66
2022/11/29 00:05:11;;;;;;;14.05;8.75;;;7.20;98.60;;;;;;4956134;29;20225;-66
2022/11/29 00:07:40;;;;;;;12.45;8.15;;;7.20;98.60;;;;;;4955542;29;20193;-66
2022/11/29 00:10:09;;;;;;;10.88;8.43;;;7.30;98.40;;;;;;4956310;28;20216;-66
2022/11/29 00:12:36;;;;;;;11.45;9.23;;;7.30;98.30;;;;;;4955630;29;20225;-66
2022/11/29 00:15:04;;;;;;;12.10;9.15;;;7.30;98.20;;;;;;4955849;29;20281;-66
2022/11/29 00:17:32;;;;;;;11.90;8.88;;;7.30;98.10;;;;;;4955517;29;20245;-66
2022/11/29 00:19:59;;;;;;;11.15;8.27;;;7.30;98.00;;;;;;4955584;29;20230;-66
2022/11/29 00:22:28;;;;;;;12.55;8.35;;;7.30;97.90;;;;;;4956013;29;20745;-66
2022/11/29 00:24:55;;;;;;;13.23;9.25;;;7.30;97.90;;;;;;4955458;29;20205;-66
2022/11/29 00:27:22;;;;;;;12.60;9.07;;;7.30;97.90;;;;;;4955809;29;20300;-66
2022/11/29 00:29:50;;;;;;;13.60;9.07;;;7.20;97.90;;;;;;4955473;29;20190;-66
2022/11/29 00:32:17;;;;;;;12.38;8.40;;;7.20;97.90;;;;;;4955151;29;20209;-66
2022/11/29 00:34:44;;;;;;;14.43;8.50;;;7.20;97.80;;;;;;4955533;29;20205;-66
2022/11/29 00:37:12;;;;;;;10.13;8.18;;;7.20;97.80;;;;;;4955223;29;20193;-66
2022/11/29 00:39:41;;;;;;;11.35;8.40;;;7.20;97.90;;;;;;4956019;29;20202;-66
2022/11/29 00:42:08;;;;;;;12.13;8.23;;;7.20;98.00;;;;;;4955281;29;20190;-66
2022/11/29 00:44:36;;;;;;;9.85;8.55;;;7.20;97.90;;;;;;4955438;29;20198;-66
2022/11/29 00:47:03;;;;;;;12.73;9.23;;;7.20;97.90;;;;;;4955153;29;20193;-66
2022/11/29 00:49:30;;;;;;;11.90;9.35;;;7.20;97.90;;;;;;4955713;29;20233;-66
2022/11/29 00:51:58;;;;;;;10.90;8.38;;;7.20;97.90;;;;;;4954930;29;20597;-67
2022/11/29 00:54:25;;;;;;;9.75;8.38;;;7.20;98.10;;;;;;4954734;29;20221;-65
2022/11/29 00:56:54;;;;;;;10.35;8.70;;;7.20;98.20;;;;;;4955185;29;20209;-65
2022/11/29 00:59:22;;;;;;;9.25;7.95;;;7.10;98.20;;;;;;4954804;29;20209;-66
2022/11/29 01:01:49;;;;;;;10.20;8.75;;;7.10;98.30;;;;;;4955100;29;20209;-66
2022/11/29 01:04:17;;;;;;;9.32;6.95;;;7.20;98.40;;;;;;4954667;29;20576;-65
2022/11/29 01:06:44;;;;;;;11.70;8.80;;;7.20;98.40;;;;;;4955210;29;20573;-65
2022/11/29 01:09:12;;;;;;;13.02;8.45;;;7.20;98.40;;;;;;4954459;29;20190;-65
2022/11/29 01:11:39;;;;;;;8.65;7.22;;;7.20;98.40;;;;;;4955024;29;20531;-65
2022/11/29 01:14:08;;;;;;;10.98;8.48;;;7.20;98.40;;;;;;4954492;29;20261;-65
2022/11/29 01:16:36;;;;;;;13.10;7.80;;;7.20;98.30;;;;;;4954856;29;20317;-65
2022/11/29 01:19:03;;;;;;;9.40;7.32;;;7.20;98.20;;;;;;4954708;29;20536;-65
2022/11/29 01:21:36;;;;;;;11.27;8.05;;;7.20;98.10;;;;;;4954892;29;20300;-65
2022/11/29 01:24:03;;;;;;;8.57;7.32;;;7.20;98.20;;;;;;4954246;29;20272;-64
2022/11/29 01:26:35;;;;;;;9.85;7.55;;;7.20;98.20;;;;;;4954714;29;20284;-65
2022/11/29 01:29:02;;;;;;;12.23;8.85;;;7.10;98.10;;;;;;4954314;29;20539;-65
2022/11/29 01:31:34;;;;;;;12.45;8.25;;;7.10;98.10;;;;;;4954666;29;20220;-65
2022/11/29 01:34:06;;;;;;;11.15;8.85;;;7.10;98.10;;;;;;4954110;29;20213;-65
2022/11/29 01:36:34;;;;;;;8.98;7.50;;;7.10;98.10;;;;;;4954739;29;20351;-66
2022/11/29 01:39:02;;;;;;;8.57;7.32;;;7.00;98.20;;;;;;4954240;29;20194;-66
2022/11/29 01:41:32;;;;;;;10.70;9.35;;;7.00;98.40;;;;;;4954075;29;20544;-65
2022/11/29 01:44:05;;;;;;;9.65;7.20;;;7.00;98.40;;;;;;4954429;29;20193;-65
2022/11/29 01:46:36;;;;;;;9.35;7.13;;;6.90;98.40;;;;;;4953970;29;20181;-65
2022/11/29 01:49:08;;;;;;;9.25;7.22;;;6.90;98.50;;;;;;4954340;29;20194;-65
2022/11/29 01:51:38;;;;;;;9.88;7.70;;;6.90;98.70;;;;;;4954301;29;20264;-65
2022/11/29 01:54:06;;;;;;;10.07;8.48;;;6.90;99.00;;;;;;4954204;29;20272;-65
2022/11/29 01:56:34;;;;;;;8.52;7.13;;;6.90;99.00;;;;;;4954095;29;20212;-65
2022/11/29 01:59:06;;;;;;;8.68;6.95;;;6.90;99.00;;;;;;4954160;29;20202;-65
2022/11/29 02:01:36;;;;;;;13.70;8.32;;;6.90;99.20;;;;;;4953684;29;20269;-65
2022/11/29 02:04:04;;;;;;;8.18;6.82;;;6.80;99.20;;;;;;4953722;28;20234;-65
2022/11/29 02:06:31;;;;;;;12.93;9.75;;;6.90;99.30;;;;;;4954255;29;20194;-65
2022/11/29 02:08:58;;;;;;;9.88;8.73;;;6.80;99.30;;;;;;4954072;29;20198;-65
2022/11/29 02:11:50;;;;;;;11.65;8.90;;;6.80;99.50;;;;;;4953329;29;20194;-65
2022/11/29 02:14:36;;;;;;;12.07;8.80;;;6.90;99.60;;;;;;4953363;29;20272;-65
2022/11/29 02:17:18;;;;;;;11.40;8.70;;;6.80;99.70;;;;;;4954081;29;20197;-65
2022/11/29 02:20:36;;;;;;;12.02;8.65;;;6.80;99.90;;;;;;4953830;29;20190;-65
2022/11/29 02:23:36;;;;;;;11.85;7.30;;;6.70;99.90;;;;;;4894893;29;20196;-65
2022/11/29 02:26:17;;;;;;;8.82;7.00;;;6.80;99.90;;;;;;4894086;29;20196;-65
2022/11/29 02:29:22;;;;;;;12.82;7.65;;;6.80;99.90;;;;;;4946511;29;20196;-65
2022/11/29 02:32:25;;;;;;;9.48;7.20;;;6.90;99.90;;;;;;4953183;29;20648;-65
2022/11/29 02:35:00;;;;;;;9.70;6.97;;;6.90;99.90;;;;;;4956086;28;20193;-66
2022/11/29 02:37:55;;;;;;;8.30;6.47;;;7.00;99.90;;;;;;4957950;29;20243;-66
2022/11/29 02:40:39;;;;;;;7.82;6.25;;;7.00;99.90;;;;;;4938225;29;20238;-66
2022/11/29 02:43:36;;;;;;;8.10;6.70;;;7.00;99.90;;;;;;4941211;29;20652;-66
2022/11/29 02:46:25;;;;;;;7.97;6.45;;;7.00;99.90;;;;;;4957628;29;20201;-66
2022/11/29 02:49:08;;;;;;;7.43;6.10;;;7.10;99.90;;;;;;4957277;29;20289;-67
2022/11/29 02:51:42;;;;;;;9.63;6.45;;;7.10;99.80;;;;;;4957414;29;20193;-66
2022/11/29 02:54:19;;;;;;;8.32;6.75;;;7.10;99.70;;;;;;4956562;29;20295;-66
2022/11/29 02:56:53;;;;;;;9.57;6.05;;;7.10;99.70;;;;;;4957436;29;20209;-66
2022/11/29 02:59:42;;;;;;;11.48;8.20;;;7.20;99.70;;;;;;4957314;29;20202;-66
2022/11/29 03:02:21;;;;;;;10.82;7.75;;;7.20;99.70;;;;;;4957165;29;20198;-66
2022/11/29 03:04:55;;;;;;;10.10;7.57;;;7.20;99.60;;;;;;4957086;29;20253;-66
2022/11/29 03:07:39;;;;;;;11.80;9.68;;;7.20;99.70;;;;;;4957007;29;20190;-66
2022/11/29 03:10:13;;;;;;;10.40;8.75;;;7.20;99.60;;;;;;4957352;29;20197;-66
2022/11/29 03:12:45;;;;;;;10.02;7.82;;;7.20;99.50;;;;;;4957120;29;20601;-66
2022/11/29 03:15:25;;;;;;;9.68;6.63;;;7.20;99.40;;;;;;4957113;29;20201;-66
2022/11/29 03:18:14;;;;;;;8.43;7.53;;;7.20;99.40;;;;;;4956183;29;20245;-66
2022/11/29 03:21:02;;;;;;;10.93;7.93;;;7.10;99.50;;;;;;4956912;29;20229;-66
2022/11/29 03:23:36;;;;;;;17.48;10.80;;;7.20;99.50;;;;;;4937358;29;20198;-66
2022/11/29 03:26:08;;;;;;;16.50;10.38;;;7.20;99.40;;;;;;4939772;29;20216;-66
2022/11/29 03:28:40;;;;;;;11.20;7.93;;;7.20;99.50;;;;;;4956693;29;20252;-66
2022/11/29 03:31:14;;;;;;;7.65;5.65;;;7.20;99.40;;;;;;4956335;29;20269;-66
2022/11/29 03:33:49;;;;;;;7.05;6.35;;;7.20;99.30;;;;;;4956562;29;20248;-66
2022/11/29 03:36:25;;;;;;;7.78;6.00;;;7.00;99.50;;;;;;4956387;29;20280;-66
2022/11/29 03:39:04;;;;;;;8.90;6.25;;;6.90;99.90;;;;;;4956712;29;20256;-66
2022/11/29 03:44:25;;;;;;;7.13;5.60;;;7.00;99.90;;;;;;4956180;29;20252;-66
2022/11/29 03:46:58;;;;;;;4.95;4.45;;;7.00;99.90;;;;;;4936469;29;20290;-66
2022/11/29 03:49:31;;;;;;;4.85;3.97;;;7.00;99.90;;;;;;4937617;29;20677;-65
2022/11/29 03:52:06;;;;;;;6.13;4.85;;;7.00;99.90;;;;;;4956442;29;20256;-66
2022/11/29 03:54:43;;;;;;;5.78;5.18;;;7.00;99.90;;;;;;4956355;29;20221;-66
2022/11/29 03:57:12;;;;;;;6.60;5.90;;;7.00;99.90;;;;;;4956414;29;20204;-66
2022/11/29 03:59:54;;;;;;;7.72;4.57;;;7.00;99.90;;;;;;4955896;29;20221;-66
2022/11/29 04:02:56;;;;;;;7.75;5.60;;;7.00;99.90;;;;;;4956346;29;20245;-66
2022/11/29 04:05:45;;;;;;;7.00;4.43;;;7.00;99.90;;;;;;4955584;29;20253;-66
2022/11/29 04:08:35;;;;;;;5.65;5.05;;;6.90;99.90;;;;;;4956201;29;20217;-66
2022/11/29 04:11:55;;;;;;;7.35;4.95;;;6.90;99.90;;;;;;4955848;29;20194;-66
2022/11/29 04:14:46;;;;;;;5.97;4.70;;;6.90;99.90;;;;;;4945205;29;20221;-67
2022/11/29 04:17:52;;;;;;;7.28;5.88;;;6.80;99.90;;;;;;4936779;29;20551;-66
2022/11/29 04:20:53;;;;;;;6.78;5.53;;;6.90;99.90;;;;;;4918874;29;20194;-66
2022/11/29 04:23:54;;;;;;;5.55;4.43;;;6.90;99.90;;;;;;4955905;29;20704;-66
2022/11/29 04:26:58;;;;;;;8.90;5.50;;;6.80;99.90;;;;;;4943204;28;20193;-66
2022/11/29 04:29:45;;;;;;;8.93;5.78;;;6.90;99.90;;;;;;4955277;29;20243;-66
2022/11/29 04:32:35;;;;;;;6.70;4.57;;;6.90;99.90;;;;;;4955857;29;20556;-66
2022/11/29 04:35:33;;;;;;;5.72;4.70;;;7.00;99.90;;;;;;4955378;29;20557;-66
2022/11/29 04:38:29;;;;;;;6.90;3.47;;;7.00;99.90;;;;;;4955720;29;20198;-66
2022/11/29 04:41:13;;;;;;;4.57;3.40;;;6.90;99.90;;;;;;4955755;29;20605;-66
2022/11/29 04:43:57;;;;;;;6.55;3.55;;;6.90;99.90;;;;;;4955550;29;20213;-66
2022/11/29 04:46:43;;;;;;;4.93;3.53;;;7.00;99.90;;;;;;4955373;29;20676;-66
2022/11/29 04:49:25;;;;;;;4.40;3.40;;;7.00;99.90;;;;;;4954962;29;20217;-66
2022/11/29 04:52:08;;;;;;;4.10;3.22;;;7.00;99.90;;;;;;4955469;29;20197;-66
2022/11/29 04:54:40;;;;;;;4.93;3.35;;;7.00;99.90;;;;;;4954930;29;20217;-66
2022/11/29 04:57:13;;;;;;;6.18;4.07;;;7.00;99.90;;;;;;4954599;28;20198;-66
2022/11/29 04:59:47;;;;;;;6.30;3.85;;;7.00;99.90;;;;;;4954830;29;20200;-66
2022/11/29 05:02:29;;;;;;;5.88;4.10;;;7.00;99.90;;;;;;4955309;29;20193;-66
2022/11/29 05:05:03;;;;;;;6.95;5.18;;;7.00;99.90;;;;;;4954792;29;20229;-66
2022/11/29 05:07:39;;;;;;;8.20;4.63;;;7.10;99.90;;;;;;4955851;29;20224;-66
2022/11/29 05:10:24;;;;;;;4.80;3.20;;;7.10;99.90;;;;;;4954816;29;20185;-66
2022/11/29 05:13:12;;;;;;;6.60;3.75;;;7.20;99.90;;;;;;4955021;29;20197;-66
2022/11/29 05:15:54;;;;;;;8.25;4.38;;;7.30;99.90;;;;;;4954197;29;20201;-65
2022/11/29 05:18:45;;;;;;;5.65;4.28;;;7.30;99.90;;;;;;4955061;29;20196;-66
2022/11/29 05:21:24;;;;;;;5.70;4.78;;;7.30;99.90;;;;;;4954570;29;20209;-66
2022/11/29 05:24:01;;;;;;;7.15;4.30;;;7.30;99.90;;;;;;4954955;29;20197;-66
2022/11/29 05:26:45;;;;;;;6.38;4.63;;;7.30;99.90;;;;;;4955018;29;20197;-66
2022/11/29 05:29:22;;;;;;;7.60;5.50;;;7.30;99.90;;;;;;4954529;29;20193;-66
2022/11/29 05:31:57;;;;;;;7.60;5.00;;;7.40;99.90;;;;;;4954754;29;20204;-66
2022/11/29 05:34:55;;;;;;;7.15;5.60;;;7.40;99.90;;;;;;4954332;29;20277;-66
2022/11/29 05:37:35;;;;;;;19.48;12.82;;;7.40;99.90;;;;;;4954540;29;20268;-66
2022/11/29 05:40:20;;;;;;;9.57;6.35;;;7.40;99.90;;;;;;4954973;29;20606;-66
2022/11/29 05:43:09;;;;;;;11.43;5.82;;;7.30;99.90;;;;;;4954391;29;20537;-66
2022/11/29 05:45:43;;;;;;;5.50;4.30;;;7.30;99.90;;;;;;4954645;29;20201;-66
2022/11/29 05:48:21;;;;;;;21.48;12.68;;;7.30;99.90;;;;;;4954403;29;20193;-66
2022/11/29 05:51:02;;;;;;;29.90;19.05;;;7.20;99.90;;;;;;4954206;29;20202;-66
2022/11/29 05:53:39;;;;;;;25.23;13.10;;;7.10;99.90;;;;;;4935362;29;20205;-66
2022/11/29 05:56:15;;;;;;;17.23;9.95;;;7.10;99.90;;;;;;4937204;29;20194;-66
2022/11/29 05:58:49;;;;;;;10.23;4.93;;;7.20;99.90;;;;;;4954413;29;20200;-66
2022/11/29 06:01:22;;;;;;;5.25;3.67;;;7.20;99.90;;;;;;4953744;29;20221;-66
2022/11/29 06:03:59;;;;;;;3.85;2.50;;;7.20;99.90;;;;;;4954406;29;20712;-66
2022/11/29 06:06:32;;;;;;;4.28;2.85;;;7.10;99.90;;;;;;4953891;29;20231;-66
2022/11/29 06:09:08;;;;;;;5.18;2.40;;;7.10;99.90;;;;;;4954041;28;20193;-66
2022/11/29 06:11:45;;;;;;;3.30;2.60;;;7.10;99.90;;;;;;4954040;29;20228;-66
2022/11/29 06:14:26;;;;;;;3.60;2.50;;;7.20;99.90;;;;;;4954401;29;20581;-66
2022/11/29 06:17:29;;;;;;;4.13;2.75;;;7.20;99.90;;;;;;4953774;29;20193;-66
2022/11/29 06:20:20;;;;;;;5.38;3.08;;;7.20;99.90;;;;;;4953098;29;20192;-66
2022/11/29 06:23:17;;;;;;;3.88;2.55;;;7.10;99.90;;;;;;4953957;29;20202;-66
2022/11/29 06:26:08;;;;;;;4.78;2.72;;;7.10;99.90;;;;;;4953657;29;20200;-66
2022/11/29 06:28:49;;;;;;;3.97;3.47;;;7.10;99.90;;;;;;4953844;29;20205;-67
2022/11/29 06:31:21;;;;;;;4.38;3.22;;;7.10;99.90;;;;;;4953382;29;20197;-66
2022/11/29 06:34:06;;;;;;;4.65;3.50;;;7.10;99.90;;;;;;4953921;29;20194;-66
2022/11/29 06:36:41;;;;;;;4.25;3.35;;;7.10;99.90;;;;;;4953714;29;20280;-66
2022/11/29 06:39:09;;;;;;;5.68;3.28;;;7.10;99.90;;;;;;4954400;29;20197;-66
2022/11/29 06:41:39;;;;;;;4.10;3.33;;;7.10;99.90;;;;;;4949765;28;20281;-66
2022/11/29 06:44:08;;;;;;;5.97;3.55;;;7.10;99.90;;;;;;4952191;29;20205;-66
2022/11/29 06:46:45;;;;;;;5.45;3.47;;;7.20;99.90;;;;;;4951874;29;20728;-66
2022/11/29 06:49:19;;;;;;;9.18;3.13;;;7.20;99.90;;;;;;4948611;29;20193;-66
2022/11/29 06:52:04;;;;;;;5.63;3.60;;;7.20;99.90;;;;;;4952183;29;20190;-66
2022/11/29 06:54:51;;;;;;;5.97;3.65;;;7.10;99.90;;;;;;4948994;29;20284;-66
2022/11/29 06:57:28;;;;;;;5.00;3.97;;;7.10;99.90;;;;;;4952149;29;20704;-66
2022/11/29 07:00:05;;;;;;;7.18;3.20;;;7.10;99.90;;;;;;4952649;28;20212;-66
2022/11/29 07:02:52;;;;;;;4.35;3.58;;;7.20;99.90;;;;;;4947581;29;20200;-66
2022/11/29 07:05:23;;;;;;;4.53;3.75;;;7.20;99.90;;;;;;4951192;29;20253;-66
2022/11/29 07:07:55;;;;;;;5.18;3.38;;;7.30;99.90;;;;;;4951796;29;20732;-66
2022/11/29 07:10:23;;;;;;;7.90;3.55;;;7.20;99.90;;;;;;4952600;29;20217;-66
2022/11/29 07:12:51;;;;;;;4.80;4.22;;;7.20;99.90;;;;;;4951380;29;20202;-66
2022/11/29 07:15:23;;;;;;;6.07;3.78;;;7.20;99.90;;;;;;4950958;29;20218;-66
2022/11/29 07:18:14;;;;;;;5.43;3.92;;;7.20;99.90;;;;;;4950586;29;20563;-66
2022/11/29 07:20:51;;;;;;;6.35;4.65;;;7.30;99.90;;;;;;4952573;28;20198;-66
2022/11/29 07:23:43;;;;;;;9.75;6.72;;;7.30;99.90;;;;;;4951173;29;20587;-65
2022/11/29 07:26:21;;;;;;;9.05;5.90;;;7.30;99.90;;;;;;4952218;29;20196;-65
2022/11/29 07:29:02;;;;;;;8.48;6.20;;;7.20;99.90;;;;;;4954031;29;20193;-66
2022/11/29 07:31:38;;;;;;;8.23;5.82;;;7.30;99.90;;;;;;4955366;29;20205;-65
2022/11/29 07:34:15;;;;;;;7.90;5.07;;;7.30;99.90;;;;;;4955449;29;20197;-66
2022/11/29 07:36:56;;;;;;;12.02;6.05;;;7.30;99.90;;;;;;4951188;29;20280;-65
2022/11/29 07:39:37;;;;;;;9.20;7.60;;;7.40;99.90;;;;;;4953539;29;20194;-65
2022/11/29 07:42:14;;;;;;;8.95;5.25;;;7.40;99.90;;;;;;4954210;29;20280;-65
2022/11/29 07:44:50;;;;;;;9.32;5.65;;;7.40;99.90;;;;;;4951714;29;20667;-66
2022/11/29 07:47:17;;;;;;;7.65;5.38;;;7.40;99.90;;;;;;4955535;29;20216;-66
2022/11/29 07:49:44;;;;;;;5.93;4.65;;;7.40;99.90;;;;;;4955101;29;20229;-65
2022/11/29 07:52:12;;;;;;;7.38;5.57;;;7.30;99.90;;;;;;4954683;29;20190;-65
2022/11/29 07:54:41;;;;;;;7.13;5.20;;;7.40;99.90;;;;;;4955203;29;20218;-65
2022/11/29 07:57:08;;;;;;;7.47;4.05;;;7.40;99.90;;;;;;4955176;29;20664;-65
2022/11/29 07:59:35;;;;;;;9.10;6.55;;;7.40;99.90;;;;;;4954810;29;20201;-65
2022/11/29 08:02:02;;;;;;;13.52;9.77;;;7.50;99.90;;;;;;4954942;29;20204;-65
2022/11/29 08:04:30;;;;;;;11.95;8.85;;;7.50;99.90;;;;;;4954917;29;20222;-65
2022/11/29 08:07:00;;;;;;;9.90;8.25;;;7.60;99.90;;;;;;4955267;29;20198;-66
2022/11/29 08:09:27;;;;;;;8.20;6.13;;;7.60;99.90;;;;;;4951534;29;20257;-66
2022/11/29 08:11:55;;;;;;;8.75;7.18;;;7.70;99.90;;;;;;4955306;29;20572;-65
2022/11/29 08:14:23;;;;;;;6.68;4.18;;;7.70;99.90;;;;;;4955128;29;20280;-66
2022/11/29 08:16:50;;;;;;;6.05;4.97;;;7.70;99.90;;;;;;4954573;29;20190;-65
2022/11/29 08:19:17;;;;;;;6.13;5.05;;;7.80;99.90;;;;;;4954787;29;20198;-66
2022/11/29 08:21:45;;;;;;;6.70;5.43;;;7.80;99.90;;;;;;4955066;29;20197;-66
2022/11/29 08:24:12;;;;;;;6.63;5.45;;;7.80;99.90;;;;;;4954994;29;20194;-65
2022/11/29 08:26:40;;;;;;;9.30;6.68;;;7.80;99.90;;;;;;4954457;29;20205;-65
2022/11/29 08:29:08;;;;;;;7.30;6.10;;;7.80;99.90;;;;;;4954729;29;20197;-66
2022/11/29 08:31:35;;;;;;;9.07;6.50;;;7.80;99.90;;;;;;4954369;28;20539;-66
2022/11/29 08:34:05;;;;;;;11.38;7.70;;;7.90;99.90;;;;;;4954944;29;20221;-66
2022/11/29 08:36:32;;;;;;;11.75;6.90;;;7.90;99.90;;;;;;4950664;29;20201;-66
2022/11/29 08:39:01;;;;;;;10.15;7.05;;;8.00;99.90;;;;;;4954669;29;20673;-66
2022/11/29 08:41:29;;;;;;;7.07;6.32;;;8.10;99.90;;;;;;4954420;29;20197;-66
2022/11/29 08:43:58;;;;;;;7.00;4.55;;;8.10;99.90;;;;;;4954251;29;20789;-66
2022/11/29 08:47:34;;;;;;;7.97;6.57;;;8.10;99.90;;;;;;4954230;29;20197;-66
2022/11/29 08:49:13;;;;;;;7.03;5.00;;;8.20;99.90;;;;;;4953821;28;20198;-66
2022/11/29 08:51:41;;;;;;;7.65;5.80;;;8.20;99.90;;;;;;4954460;29;20194;-66
2022/11/29 08:54:07;;;;;;;7.80;6.03;;;8.20;99.90;;;;;;4954192;29;20197;-66
2022/11/29 08:56:37;;;;;;;6.88;6.10;;;8.20;99.90;;;;;;4954264;29;20190;-65
2022/11/29 08:59:04;;;;;;;8.13;7.32;;;8.30;99.90;;;;;;4954108;29;20201;-66
2022/11/29 09:01:32;;;;;;;8.27;7.03;;;8.30;99.90;;;;;;4954304;29;20197;-66
2022/11/29 09:04:01;;;;;;;8.00;6.18;;;8.30;99.90;;;;;;4954012;29;20217;-66
2022/11/29 09:06:30;;;;;;;7.35;5.97;;;8.30;99.90;;;;;;4953701;29;20197;-66
2022/11/29 09:08:58;;;;;;;8.20;5.82;;;8.40;99.90;;;;;;4953855;29;20257;-66
2022/11/29 09:11:27;;;;;;;9.70;6.15;;;8.40;99.90;;;;;;4948571;28;20193;-66
2022/11/29 09:13:57;;;;;;;8.32;5.70;;;8.50;99.90;;;;;;4949888;29;20204;-66
2022/11/29 09:16:34;;;;;;;6.03;5.18;;;8.50;99.90;;;;;;4948093;29;20229;-66
2022/11/29 09:19:02;;;;;;;7.95;5.13;;;8.50;99.90;;;;;;4951975;29;20699;-66
2022/11/29 09:21:32;;;;;;;5.43;4.60;;;8.50;99.60;;;;;;4952091;29;20249;-66
2022/11/29 09:24:01;;;;;;;5.85;4.53;;;8.50;99.20;;;;;;4951989;29;20198;-66
2022/11/29 09:26:31;;;;;;;5.03;4.53;;;8.50;99.60;;;;;;4952219;29;20258;-66
2022/11/29 09:29:00;;;;;;;5.95;4.57;;;8.50;99.30;;;;;;4952019;29;20201;-66
2022/11/29 09:31:28;;;;;;;4.97;4.15;;;8.50;99.60;;;;;;4952007;29;20280;-66
2022/11/29 09:33:57;;;;;;;6.63;3.53;;;8.50;99.30;;;;;;4952214;29;20233;-66
2022/11/29 09:36:25;;;;;;;10.63;5.65;;;8.40;99.30;;;;;;4954297;28;20222;-66
2022/11/29 09:38:52;;;;;;;5.07;3.80;;;8.40;99.40;;;;;;4950204;28;20202;-66
2022/11/29 09:41:39;;;;;;;5.60;4.38;;;8.40;99.50;;;;;;4953596;28;20190;-65
2022/11/29 09:44:14;;;;;;;11.50;5.70;;;8.40;99.90;;;;;;4950969;28;20199;-65
2022/11/29 09:46:53;;;;;;;6.03;4.50;;;8.40;99.90;;;;;;4951523;29;20197;-66
2022/11/29 09:49:56;;;;;;;7.25;5.97;;;8.50;99.90;;;;;;4948090;29;20706;-66
2022/11/29 09:52:34;;;;;;;6.43;5.35;;;8.50;99.90;;;;;;4949401;29;20197;-66
2022/11/29 09:55:12;;;;;;;5.35;3.65;;;8.60;99.90;;;;;;4953603;29;20220;-66
2022/11/29 09:57:42;;;;;;;7.13;4.50;;;8.60;99.90;;;;;;4953259;29;20290;-66
2022/11/29 10:00:18;;;;;;;5.70;3.45;;;8.50;99.60;;;;;;4952998;29;20205;-66
2022/11/29 10:02:50;;;;;;;4.68;3.63;;;8.50;99.60;;;;;;4953413;29;20202;-66
2022/11/29 10:05:22;;;;;;;7.75;4.07;;;8.40;99.90;;;;;;4952908;29;20277;-65
2022/11/29 10:07:56;;;;;;;4.00;3.53;;;8.50;99.90;;;;;;4953287;29;20194;-66
2022/11/29 10:10:29;;;;;;;5.75;4.00;;;8.50;99.90;;;;;;4953425;29;20222;-66
2022/11/29 10:13:00;;;;;;;3.92;3.42;;;8.50;99.90;;;;;;4946220;28;20197;-65
2022/11/29 10:15:30;;;;;;;5.13;3.90;;;8.50;99.90;;;;;;4951034;29;21483;-66
2022/11/29 10:18:02;;;;;;;6.75;4.15;;;8.60;99.90;;;;;;4951340;29;20201;-66
2022/11/29 10:20:34;;;;;;;7.85;3.70;;;8.60;99.90;;;;;;4956064;28;20619;-66
2022/11/29 10:23:05;;;;;;;6.68;5.15;;;8.70;99.90;;;;;;4951580;29;20197;-66
2022/11/29 10:25:39;;;;;;;10.32;5.15;;;8.60;99.90;;;;;;4956092;28;20198;-65
2022/11/29 10:28:12;;;;;;;7.70;5.78;;;8.70;99.90;;;;;;4952012;29;20197;-66
2022/11/29 10:30:43;;;;;;;3.85;2.60;;;8.70;99.90;;;;;;4951690;29;20216;-66
2022/11/29 10:33:18;;;;;;;5.45;3.67;;;8.70;99.90;;;;;;4951494;29;20193;-66
2022/11/29 10:35:48;;;;;;;4.30;3.20;;;8.80;99.90;;;;;;4951038;29;20264;-66
2022/11/29 10:38:18;;;;;;;3.20;2.53;;;8.80;99.90;;;;;;4950800;29;20194;-65
2022/11/29 10:40:56;;;;;;;8.70;5.65;;;8.90;99.90;;;;;;4951187;29;20256;-66
2022/11/29 10:43:25;;;;;;;12.57;10.05;;;8.90;99.90;;;;;;4954423;28;20249;-65
2022/11/29 10:45:54;;;;;;;7.15;5.70;;;9.00;99.90;;;;;;4947551;29;20509;-66
2022/11/29 10:48:25;;;;;;;11.75;8.52;;;9.10;99.90;;;;;;4954456;28;20220;-66
2022/11/29 10:51:01;;;;;;;4.50;3.65;;;9.10;99.60;;;;;;4951106;29;20205;-66
2022/11/29 10:53:34;;;;;;;5.72;2.83;;;9.20;99.30;;;;;;4948138;29;20205;-66
2022/11/29 10:56:05;;;;;;;4.40;2.75;;;9.20;99.20;;;;;;4953940;28;20284;-65
2022/11/29 10:58:33;;;;;;;6.15;3.20;;;9.20;98.90;;;;;;4954778;29;20212;-66
2022/11/29 11:01:05;;;;;;;4.05;3.03;;;9.20;99.00;;;;;;4954770;29;20206;-67
2022/11/29 11:03:37;;;;;;;6.10;2.92;;;9.30;98.70;;;;;;4954607;29;20631;-66
2022/11/29 11:06:13;;;;;;;6.60;3.25;;;9.30;98.60;;;;;;4955449;28;20209;-66
2022/11/29 11:08:43;;;;;;;8.35;5.07;;;9.20;98.50;;;;;;4955155;29;20204;-65
2022/11/29 11:11:11;;;;;;;15.32;9.45;;;9.10;98.20;;;;;;4956031;29;20217;-65
2022/11/29 11:13:39;;;;;;;10.30;6.43;;;9.00;98.50;;;;;;4956327;29;20268;-66
2022/11/29 11:16:16;;;;;;;7.03;4.22;;;8.90;98.80;;;;;;4955828;29;20225;-66
2022/11/29 11:18:45;;;;;;;5.97;3.40;;;8.70;99.20;;;;;;4956085;29;20225;-66
2022/11/29 11:21:17;;;;;;;5.60;3.35;;;8.70;99.30;;;;;;4955895;29;20198;-66
2022/11/29 11:23:57;;;;;;;3.85;2.83;;;8.70;99.30;;;;;;4955764;29;20193;-66
2022/11/29 11:26:25;;;;;;;4.78;2.97;;;8.70;99.50;;;;;;4956147;29;20233;-66
2022/11/29 11:28:58;;;;;;;4.15;3.33;;;8.70;99.70;;;;;;4955843;29;20280;-66
2022/11/29 11:31:33;;;;;;;5.82;3.15;;;8.70;99.70;;;;;;4955813;29;20197;-66
2022/11/29 11:34:25;;;;;;;4.30;2.78;;;8.70;99.80;;;;;;4955758;29;20192;-66
2022/11/29 11:37:11;;;;;;;3.67;2.72;;;8.80;99.80;;;;;;4953587;29;20257;-66
2022/11/29 11:39:38;;;;;;;3.20;2.40;;;8.70;99.40;;;;;;4953017;29;20210;-66
2022/11/29 11:44:55;;;;;;;3.65;2.00;;;8.80;99.60;;;;;;4955419;29;20203;-66
2022/11/29 11:47:24;;;;;;;2.83;1.50;;;8.80;99.80;;;;;;4955643;29;20197;-66
2022/11/29 11:49:56;;;;;;;2.17;1.40;;;8.90;99.80;;;;;;4955495;29;20198;-66
2022/11/29 11:52:27;;;;;;;3.97;2.05;;;8.90;99.80;;;;;;4955216;29;20198;-66
2022/11/29 11:55:01;;;;;;;2.75;1.90;;;9.00;99.60;;;;;;4955198;29;20205;-66
2022/11/29 11:57:32;;;;;;;2.88;1.88;;;8.90;99.50;;;;;;4952495;29;20225;-66
2022/11/29 11:59:59;;;;;;;4.93;1.98;;;9.00;99.40;;;;;;4955120;29;20641;-66
2022/11/29 12:02:30;;;;;;;2.55;1.65;;;9.00;99.30;;;;;;4955078;29;20197;-66
2022/11/29 12:05:00;;;;;;;4.35;2.60;;;9.10;99.30;;;;;;4955275;29;20714;-66
2022/11/29 12:07:34;;;;;;;6.03;4.40;;;9.10;99.20;;;;;;4954516;28;20202;-66
2022/11/29 12:10:06;;;;;;;6.75;4.43;;;9.10;99.10;;;;;;4954535;29;20198;-66
2022/11/29 12:12:38;;;;;;;8.63;4.85;;;9.20;99.10;;;;;;4954284;29;20194;-66
2022/11/29 12:15:08;;;;;;;5.28;3.90;;;9.20;99.20;;;;;;4953495;29;20187;-66
2022/11/29 12:17:40;;;;;;;5.28;4.25;;;9.20;99.20;;;;;;4954234;29;20194;-65
2022/11/29 12:20:21;;;;;;;5.22;3.88;;;9.30;99.20;;;;;;4954795;29;20190;-66
2022/11/29 12:23:02;;;;;;;5.50;4.57;;;9.30;99.20;;;;;;4954918;29;20198;-65
2022/11/29 12:25:34;;;;;;;5.65;5.05;;;9.30;99.30;;;;;;4954455;29;20244;-66
2022/11/29 12:28:01;;;;;;;5.63;4.50;;;9.40;99.20;;;;;;4953405;29;20276;-65
2022/11/29 12:30:28;;;;;;;6.05;5.05;;;9.40;99.20;;;;;;4954573;29;20205;-66
2022/11/29 12:33:13;;;;;;;8.02;5.72;;;9.40;99.30;;;;;;4953946;29;20201;-66
2022/11/29 12:36:05;;;;;;;6.45;5.38;;;9.50;99.50;;;;;;4953678;29;20232;-66
2022/11/29 12:38:55;;;;;;;8.70;4.88;;;9.50;99.40;;;;;;4953895;28;20201;-66
2022/11/29 12:41:34;;;;;;;6.00;4.72;;;9.60;99.30;;;;;;4951759;29;20284;-66
2022/11/29 12:44:11;;;;;;;6.10;4.38;;;9.60;99.10;;;;;;4954050;29;20240;-66
2022/11/29 12:46:40;;;;;;;6.75;5.03;;;9.60;99.00;;;;;;4954494;29;20205;-66
2022/11/29 12:49:16;;;;;;;6.75;5.10;;;9.60;98.70;;;;;;4953986;29;20254;-67
2022/11/29 12:51:50;;;;;;;5.18;4.47;;;9.60;98.70;;;;;;4954204;29;20606;-66
2022/11/29 12:54:43;;;;;;;8.85;5.35;;;9.60;98.60;;;;;;4954494;29;20203;-66
2022/11/29 12:57:21;;;;;;;6.22;5.07;;;9.60;98.60;;;;;;4954182;29;20300;-66
2022/11/29 13:00:03;;;;;;;6.43;4.88;;;9.60;98.70;;;;;;4950918;29;20198;-65
2022/11/29 13:02:41;;;;;;;6.05;4.63;;;9.60;98.70;;;;;;4953878;29;20203;-65
2022/11/29 13:05:17;;;;;;;5.80;5.18;;;9.60;98.60;;;;;;4954109;29;20239;-66
2022/11/29 13:07:57;;;;;;;6.10;3.88;;;9.60;98.60;;;;;;4953815;29;20194;-66
2022/11/29 13:10:38;;;;;;;5.72;4.72;;;9.60;98.60;;;;;;4954110;29;20253;-66
2022/11/29 13:13:19;;;;;;;6.18;4.90;;;9.60;98.60;;;;;;4950853;29;20249;-66
2022/11/29 13:15:54;;;;;;;4.32;3.63;;;9.60;98.50;;;;;;4950566;28;20580;-66
2022/11/29 13:18:27;;;;;;;5.60;3.83;;;9.60;98.60;;;;;;4951704;28;20211;-66
2022/11/29 13:21:07;;;;;;;5.63;4.05;;;9.60;98.70;;;;;;4952100;29;20206;-66
2022/11/29 13:23:49;;;;;;;5.20;3.80;;;9.60;98.50;;;;;;4952508;29;20202;-66
2022/11/29 13:26:19;;;;;;;6.35;4.40;;;9.60;98.40;;;;;;4952207;29;20253;-66
2022/11/29 13:28:46;;;;;;;5.18;3.78;;;9.60;98.40;;;;;;4951778;29;20204;-66
2022/11/29 13:31:16;;;;;;;4.15;3.45;;;9.60;98.40;;;;;;4952153;29;20281;-66
2022/11/29 13:33:55;;;;;;;4.53;3.97;;;9.60;98.40;;;;;;4951318;29;20245;-66
2022/11/29 13:36:30;;;;;;;4.38;3.40;;;9.60;98.50;;;;;;4951708;29;20205;-66
2022/11/29 13:39:06;;;;;;;4.20;3.28;;;9.60;98.40;;;;;;4947843;29;20225;-66
2022/11/29 13:41:47;;;;;;;4.47;3.53;;;9.60;98.30;;;;;;4952366;29;20653;-66
2022/11/29 13:44:23;;;;;;;5.72;4.50;;;9.60;98.30;;;;;;4952655;29;20206;-66